Darstellungsparameter: Aktuell verwendete Einstellungen:
Skalierung der Graphiken ... ?
xyx+y,   Skalierungsfaktor:      Skalierung: Modus: x, Faktor: 1
Darstellungszeitraum ... ?
Vom - - bis: - -   Zeitraum: 17.09.2021 - 16.10.2021
Min/Max/Avg-Anzeige ... ?
Zeige MMA aktuell
Zeige MMA Monat
Zeige MMA alles
Zeige --A aktuell
Zeige --A Monat
Zeige --A alles
Keine MMA-Anzeige
MMA:
Average (ber die Originaldaten)
MMA-Basis: 17.09.2021 - 16.10.2021
Quicknavigation für Darstellung... ?
Tage:      1T, 2T, 3T, 5T -1T -2T -3T -5T +1T +2T +3T +5T
Wochen: 1W, 2W, 3W -1W -2W -3W +1W +2W +3W
Monate: 1M, 3M, 6M -1M -3M -6M +1M +3M +6M
Jahre:    1J, 3J, 5J, 10J -1J -3J -5J -10J +1J +3J +5J +10J
Nutze für die Darstellung ... ?
Originaldaten oder ...
Mittelwerte Minima Maxima auf...
Stundenbasis Tagesbasis Wochenbasis
Monatsbasis Jahresbasis      Datenbasis: Mittelwerte auf Stundenbasis
Darstellen als:
Statistik (Auto) Statistik J:M      Darstellung:
Zur Graphik,    zurück zur Übersicht aller Sensoren.
 
Tabellarische Datenbersicht: ?
 
Sensor: Nr:Datum:Temp:Abs-Feuchte:Windchill:Wind:
Aussen-T/F 1 17-09-2021 00:00:00 12.95 C 10.67 g/m*3 12.95 C 0.93333 km/h
2 17-09-2021 01:00:00 12.53333 C 10.42 g/m*3 12.53 C 0.66667 km/h
3 17-09-2021 02:00:00 11.68333 C 9.93 g/m*3 11.68 C 0.13333 km/h
4 17-09-2021 03:00:00 11.18333 C 9.64 g/m*3 11.18 C 0.8 km/h
5 17-09-2021 04:00:00 10.91667 C 9.49 g/m*3 10.92 C 0 km/h
6 17-09-2021 05:00:00 11.10833 C 9.67 g/m*3 11.11 C 0 km/h
7 17-09-2021 06:00:00 11.3 C 9.79 g/m*3 11.3 C 0 km/h
8 17-09-2021 07:00:00 11.16667 C 9.71 g/m*3 11.17 C 0 km/h
9 17-09-2021 08:00:00 11.60833 C 10.06 g/m*3 11.61 C 0 km/h
10 17-09-2021 09:00:00 12.7 C 10.8 g/m*3 12.7 C 0 km/h
11 17-09-2021 10:00:00 13.70833 C 11.36 g/m*3 13.71 C 0 km/h
12 17-09-2021 11:00:00 14.99167 C 11.89 g/m*3 14.99 C 0 km/h
13 17-09-2021 12:00:00 17.01667 C 12.5 g/m*3 17.02 C 0 km/h
14 17-09-2021 13:00:00 18.45833 C 12.77 g/m*3 18.46 C 0.53333 km/h
15 17-09-2021 14:00:00 18.89167 C 12.75 g/m*3 18.89 C 0 km/h
16 17-09-2021 15:00:00 19.29167 C 12.61 g/m*3 19.29 C 0 km/h
17 17-09-2021 16:00:00 19.425 C 13.31 g/m*3 19.43 C 0 km/h
18 17-09-2021 17:00:00 20.64167 C 13.86 g/m*3 20.64 C 0.26667 km/h
19 17-09-2021 18:00:00 18.98333 C 12.98 g/m*3 18.98 C 5.33333 km/h
20 17-09-2021 19:00:00 16.975 C 12.33 g/m*3 16.98 C 5.75 km/h
21 17-09-2021 20:00:00 15.18333 C 11.44 g/m*3 15.18 C 2.14167 km/h
22 17-09-2021 21:00:00 13.89167 C 10.94 g/m*3 13.89 C 0 km/h
23 17-09-2021 22:00:00 12.96667 C 10.53 g/m*3 12.97 C 0 km/h
24 17-09-2021 23:00:00 12.36667 C 10.26 g/m*3 12.37 C 0.13333 km/h
25 18-09-2021 00:00:00 12.08333 C 10.18 g/m*3 12.08 C 0 km/h
Sensor: Nr:Datum:Temp:Abs-Feuchte:Windchill:Wind:
Aussen-T/F 26 18-09-2021 01:00:00 11.86667 C 10.04 g/m*3 11.87 C 0.13333 km/h
27 18-09-2021 02:00:00 11.38333 C 9.76 g/m*3 11.38 C 0 km/h
28 18-09-2021 03:00:00 10.9 C 9.5 g/m*3 10.9 C 0.13333 km/h
29 18-09-2021 04:00:00 11.08333 C 9.66 g/m*3 11.08 C 0.13333 km/h
30 18-09-2021 05:00:00 11.03333 C 9.63 g/m*3 11.03 C 0 km/h
31 18-09-2021 06:00:00 10.81667 C 9.5 g/m*3 10.82 C 0 km/h
32 18-09-2021 07:00:00 10.7 C 9.51 g/m*3 10.7 C 0 km/h
33 18-09-2021 08:00:00 10.8 C 9.59 g/m*3 10.8 C 0 km/h
34 18-09-2021 09:00:00 11.175 C 9.82 g/m*3 11.18 C 0.13333 km/h
35 18-09-2021 10:00:00 11.75833 C 10.18 g/m*3 11.76 C 0 km/h
36 18-09-2021 11:00:00 12.75833 C 10.84 g/m*3 12.76 C 0 km/h
37 18-09-2021 12:00:00 14.76667 C 12.16 g/m*3 14.77 C 0 km/h
38 18-09-2021 13:00:00 16.69167 C 12.87 g/m*3 16.69 C 0 km/h
39 18-09-2021 14:00:00 18.925 C 12.74 g/m*3 18.93 C 0 km/h
40 18-09-2021 15:00:00 20.525 C 12.99 g/m*3 20.53 C 0 km/h
41 18-09-2021 16:00:00 20.94167 C 13.05 g/m*3 20.94 C 0 km/h
42 18-09-2021 17:00:00 21.8 C 14.57 g/m*3 21.8 C 0 km/h
43 18-09-2021 18:00:00 21.75833 C 14.58 g/m*3 21.76 C 0 km/h
44 18-09-2021 19:00:00 18.08333 C 12.85 g/m*3 18.08 C 0.53333 km/h
45 18-09-2021 20:00:00 15.95833 C 12 g/m*3 15.96 C 1.73333 km/h
46 18-09-2021 21:00:00 15.1 C 11.75 g/m*3 15.1 C 0.4 km/h
47 18-09-2021 22:00:00 14.58333 C 11.56 g/m*3 14.58 C 0.66667 km/h
48 18-09-2021 23:00:00 14.18333 C 11.27 g/m*3 14.18 C 0.66667 km/h
49 19-09-2021 00:00:00 13.275 C 10.68 g/m*3 13.28 C 1.06667 km/h
50 19-09-2021 01:00:00 12.65833 C 10.4 g/m*3 12.66 C 1.46667 km/h
Sensor: Nr:Datum:Temp:Abs-Feuchte:Windchill:Wind:
Aussen-T/F 51 19-09-2021 02:00:00 12.28333 C 10.16 g/m*3 12.28 C 1.86667 km/h
52 19-09-2021 03:00:00 11.68333 C 9.83 g/m*3 11.68 C 2.53333 km/h
53 19-09-2021 04:00:00 11.31667 C 9.69 g/m*3 11.32 C 0 km/h
54 19-09-2021 05:00:00 10.76667 C 9.37 g/m*3 10.77 C 0 km/h
55 19-09-2021 06:00:00 10.4 C 9.17 g/m*3 10.4 C 0 km/h
56 19-09-2021 07:00:00 10.125 C 9.05 g/m*3 10.13 C 0 km/h
57 19-09-2021 08:00:00 10.525 C 9.33 g/m*3 10.53 C 0 km/h
58 19-09-2021 09:00:00 12.125 C 10.41 g/m*3 12.13 C 2.01667 km/h
59 19-09-2021 10:00:00 12.91667 C 10.83 g/m*3 12.92 C 1.33333 km/h
60 19-09-2021 11:00:00 14.375 C 11.39 g/m*3 14.38 C 2.94167 km/h
61 19-09-2021 12:00:00 16.8 C 11.43 g/m*3 16.8 C 7.525 km/h
62 19-09-2021 13:00:00 17.65 C 11.26 g/m*3 17.65 C 5.51667 km/h
63 19-09-2021 14:00:00 18.29167 C 11.46 g/m*3 18.29 C 3.73333 km/h
64 19-09-2021 15:00:00 18.8 C 11.5 g/m*3 18.8 C 7.5 km/h
65 19-09-2021 16:00:00 19.01667 C 11.39 g/m*3 19.02 C 9.28333 km/h
66 19-09-2021 17:00:00 19.45 C 11.78 g/m*3 19.45 C 6.3 km/h
67 19-09-2021 18:00:00 19.60833 C 11.87 g/m*3 19.61 C 4.025 km/h
68 19-09-2021 19:00:00 15.71667 C 10.96 g/m*3 15.72 C 0.4 km/h
69 19-09-2021 20:00:00 13.44167 C 10.08 g/m*3 13.44 C 1.60833 km/h
70 19-09-2021 21:00:00 12.11667 C 9.5 g/m*3 12.12 C 0 km/h
71 19-09-2021 22:00:00 11.04167 C 9.17 g/m*3 11.04 C 0 km/h
72 19-09-2021 23:00:00 11.39167 C 9.56 g/m*3 11.39 C 0 km/h
73 20-09-2021 00:00:00 11.8 C 9.76 g/m*3 11.8 C 0 km/h
74 20-09-2021 01:00:00 12 C 9.71 g/m*3 12 C 0 km/h
75 20-09-2021 02:00:00 12.09167 C 9.6 g/m*3 12.09 C 0.13333 km/h
Sensor: Nr:Datum:Temp:Abs-Feuchte:Windchill:Wind:
Aussen-T/F 76 20-09-2021 03:00:00 11.975 C 9.56 g/m*3 11.98 C 0 km/h
77 20-09-2021 04:00:00 11.6 C 9.37 g/m*3 11.6 C 0 km/h
78 20-09-2021 05:00:00 11.30833 C 9.29 g/m*3 11.31 C 0 km/h
79 20-09-2021 06:00:00 11.325 C 9.23 g/m*3 11.33 C 0 km/h
80 20-09-2021 07:00:00 11.45 C 9.28 g/m*3 11.45 C 0 km/h
81 20-09-2021 08:00:00 11.76667 C 9.1 g/m*3 11.77 C 0 km/h
82 20-09-2021 09:00:00 12.54167 C 9.1 g/m*3 12.54 C 0.93333 km/h
83 20-09-2021 10:00:00 12.95 C 9.25 g/m*3 12.95 C 4.40833 km/h
84 20-09-2021 11:00:00 13.79167 C 9.45 g/m*3 13.79 C 7.8 km/h
85 20-09-2021 12:00:00 14.6 C 9.66 g/m*3 14.6 C 8.35 km/h
86 20-09-2021 13:00:00 15.16667 C 9.89 g/m*3 15.17 C 6.84167 km/h
87 20-09-2021 14:00:00 16.04167 C 10.23 g/m*3 16.04 C 7.80833 km/h
88 20-09-2021 15:00:00 16.28333 C 10.34 g/m*3 16.28 C 7.25 km/h
89 20-09-2021 16:00:00 16.26667 C 10.27 g/m*3 16.27 C 4.025 km/h
90 20-09-2021 17:00:00 16.29167 C 10.35 g/m*3 16.29 C 1.73333 km/h
91 20-09-2021 18:00:00 15.93333 C 10.88 g/m*3 15.93 C 0 km/h
92 20-09-2021 19:00:00 14.71667 C 10.48 g/m*3 14.72 C 0 km/h
93 20-09-2021 20:00:00 13.66667 C 9.9 g/m*3 13.67 C 0 km/h
94 20-09-2021 21:00:00 13.075 C 9.64 g/m*3 13.08 C 0 km/h
95 20-09-2021 22:00:00 12.75833 C 9.47 g/m*3 12.76 C 0 km/h
96 20-09-2021 23:00:00 12.71667 C 9.41 g/m*3 12.72 C 0 km/h
97 21-09-2021 00:00:00 12.25833 C 9.23 g/m*3 12.26 C 0 km/h
98 21-09-2021 01:00:00 12.00833 C 8.95 g/m*3 12.01 C 0.26667 km/h
99 21-09-2021 02:00:00 12.00833 C 8.48 g/m*3 12.01 C 1.6 km/h
100 21-09-2021 03:00:00 12.34167 C 8.45 g/m*3 12.34 C 0 km/h
Sensor: Nr:Datum:Temp:Abs-Feuchte:Windchill:Wind:
Aussen-T/F 101 21-09-2021 04:00:00 11.60833 C 8.52 g/m*3 11.61 C 0 km/h
102 21-09-2021 05:00:00 11.06667 C 8.33 g/m*3 11.07 C 0 km/h
103 21-09-2021 06:00:00 9.9 C 7.91 g/m*3 9.9 C 0 km/h
104 21-09-2021 07:00:00 8.94167 C 7.76 g/m*3 8.94 C 0 km/h
105 21-09-2021 08:00:00 8.4 C 7.71 g/m*3 8.4 C 0 km/h
106 21-09-2021 09:00:00 8.40833 C 7.73 g/m*3 8.41 C 0 km/h
107 21-09-2021 10:00:00 9.21667 C 8.27 g/m*3 9.22 C 0 km/h
108 21-09-2021 11:00:00 10.95833 C 8.96 g/m*3 10.96 C 0 km/h
109 21-09-2021 12:00:00 13.90833 C 8.82 g/m*3 13.91 C 1.075 km/h
110 21-09-2021 13:00:00 15.93333 C 8.46 g/m*3 15.93 C 6.575 km/h
111 21-09-2021 14:00:00 16.65 C 8.55 g/m*3 16.65 C 6.84167 km/h
112 21-09-2021 15:00:00 16.64167 C 8.73 g/m*3 16.64 C 4.81667 km/h
113 21-09-2021 16:00:00 16.83333 C 8.54 g/m*3 16.83 C 7.66667 km/h
114 21-09-2021 17:00:00 17.26667 C 9.48 g/m*3 17.27 C 2.4 km/h
115 21-09-2021 18:00:00 16.125 C 10.39 g/m*3 16.13 C 3.875 km/h
116 21-09-2021 19:00:00 13.10833 C 8.99 g/m*3 13.11 C 8.08333 km/h
117 21-09-2021 20:00:00 11.425 C 8.61 g/m*3 11.43 C 2.53333 km/h
118 21-09-2021 21:00:00 10.10833 C 8.29 g/m*3 10.11 C 0 km/h
119 21-09-2021 22:00:00 9.26667 C 8.1 g/m*3 9.27 C 0 km/h
120 21-09-2021 23:00:00 8.825 C 8 g/m*3 8.82 C 0 km/h
121 22-09-2021 00:00:00 8.44167 C 7.91 g/m*3 8.44 C 0 km/h
122 22-09-2021 01:00:00 8.025 C 7.76 g/m*3 8.03 C 0 km/h
123 22-09-2021 02:00:00 7.71667 C 7.63 g/m*3 7.72 C 0.13333 km/h
124 22-09-2021 03:00:00 7.36667 C 7.51 g/m*3 7.37 C 0 km/h
125 22-09-2021 04:00:00 7.01667 C 7.37 g/m*3 7.02 C 0 km/h
Sensor: Nr:Datum:Temp:Abs-Feuchte:Windchill:Wind:
Aussen-T/F 126 22-09-2021 05:00:00 6.775 C 7.25 g/m*3 6.78 C 0.13333 km/h
127 22-09-2021 06:00:00 6.36667 C 7.06 g/m*3 6.37 C 0 km/h
128 22-09-2021 07:00:00 6.10833 C 6.96 g/m*3 6.11 C 0 km/h
129 22-09-2021 08:00:00 6.76667 C 7.33 g/m*3 6.77 C 0 km/h
130 22-09-2021 09:00:00 7.475 C 7.67 g/m*3 7.48 C 0 km/h
131 22-09-2021 10:00:00 8.64167 C 8.32 g/m*3 8.64 C 0 km/h
132 22-09-2021 11:00:00 10.55 C 9.33 g/m*3 10.55 C 0 km/h
133 22-09-2021 12:00:00 12.85833 C 10.19 g/m*3 12.86 C 0 km/h
134 22-09-2021 13:00:00 14.7 C 10.6 g/m*3 14.7 C 0 km/h
135 22-09-2021 14:00:00 16.98333 C 10.81 g/m*3 16.98 C 0 km/h
136 22-09-2021 15:00:00 17.65833 C 11.6 g/m*3 17.66 C 0 km/h
137 22-09-2021 16:00:00 17.175 C 11.48 g/m*3 17.18 C 0 km/h
138 22-09-2021 17:00:00 17.76667 C 12.08 g/m*3 17.77 C 0 km/h
139 22-09-2021 18:00:00 17.9 C 11.96 g/m*3 17.9 C 0 km/h
140 22-09-2021 19:00:00 14.925 C 10.55 g/m*3 14.93 C 4.13333 km/h
141 22-09-2021 20:00:00 12.725 C 9.73 g/m*3 12.73 C 1.06667 km/h
142 22-09-2021 21:00:00 11.30833 C 9.23 g/m*3 11.31 C 0 km/h
143 22-09-2021 22:00:00 10.475 C 8.9 g/m*3 10.48 C 0 km/h
144 22-09-2021 23:00:00 9.91667 C 8.72 g/m*3 9.92 C 0.4 km/h
145 23-09-2021 00:00:00 9.43333 C 8.52 g/m*3 9.43 C 0.13333 km/h
146 23-09-2021 01:00:00 9.075 C 8.39 g/m*3 9.07 C 0.13333 km/h
147 23-09-2021 02:00:00 8.625 C 8.18 g/m*3 8.63 C 0.26667 km/h
148 23-09-2021 03:00:00 8.19167 C 7.95 g/m*3 8.19 C 0.13333 km/h
149 23-09-2021 04:00:00 7.54167 C 7.62 g/m*3 7.54 C 0 km/h
150 23-09-2021 05:00:00 7.38333 C 7.59 g/m*3 7.38 C 0 km/h
Sensor: Nr:Datum:Temp:Abs-Feuchte:Windchill:Wind:
Aussen-T/F 151 23-09-2021 06:00:00 7.53333 C 7.7 g/m*3 7.53 C 0.13333 km/h
152 23-09-2021 07:00:00 7.83333 C 7.85 g/m*3 7.83 C 0 km/h
153 23-09-2021 08:00:00 8.225 C 8.05 g/m*3 8.23 C 0 km/h
154 23-09-2021 09:00:00 8.58333 C 8.27 g/m*3 8.58 C 0 km/h
155 23-09-2021 10:00:00 9.2 C 8.66 g/m*3 9.2 C 0 km/h
156 23-09-2021 11:00:00 10.65 C 9.5 g/m*3 10.65 C 0 km/h
157 23-09-2021 12:00:00 13.525 C 11.34 g/m*3 13.53 C 0.8 km/h
158 23-09-2021 13:00:00 17.00833 C 11.99 g/m*3 17.01 C 8.33333 km/h
159 23-09-2021 14:00:00 19.60833 C 11.95 g/m*3 19.61 C 7.8 km/h
160 23-09-2021 15:00:00 20.61667 C 12.36 g/m*3 20.62 C 9.00833 km/h
161 23-09-2021 16:00:00 21.23333 C 12.9 g/m*3 21.23 C 8.73333 km/h
162 23-09-2021 17:00:00 22.15 C 12.14 g/m*3 22.15 C 8.04167 km/h
163 23-09-2021 18:00:00 21.625 C 10.34 g/m*3 21.63 C 8.19167 km/h
164 23-09-2021 19:00:00 19.10833 C 10.24 g/m*3 19.11 C 3.89167 km/h
165 23-09-2021 20:00:00 17.84167 C 10.31 g/m*3 17.84 C 8.46667 km/h
166 23-09-2021 21:00:00 17.13333 C 10.62 g/m*3 17.13 C 3.33333 km/h
167 23-09-2021 22:00:00 15.84167 C 10.64 g/m*3 15.84 C 4.26667 km/h
168 23-09-2021 23:00:00 15.18333 C 10.71 g/m*3 15.18 C 2.4 km/h
169 24-09-2021 00:00:00 14.90833 C 10.77 g/m*3 14.91 C 2.94167 km/h
170 24-09-2021 01:00:00 15.09167 C 10.69 g/m*3 15.09 C 2.8 km/h
171 24-09-2021 02:00:00 14.36667 C 10.6 g/m*3 14.37 C 4.81667 km/h
172 24-09-2021 03:00:00 13.98333 C 10.52 g/m*3 13.98 C 2.675 km/h
173 24-09-2021 04:00:00 13.875 C 10.49 g/m*3 13.88 C 5.09167 km/h
174 24-09-2021 05:00:00 12.85833 C 10.15 g/m*3 12.86 C 3.20833 km/h
175 24-09-2021 06:00:00 12.60833 C 10.18 g/m*3 12.61 C 5.21667 km/h
Sensor: Nr:Datum:Temp:Abs-Feuchte:Windchill:Wind:
Aussen-T/F 176 24-09-2021 07:00:00 12.15 C 9.94 g/m*3 12.15 C 1.33333 km/h
177 24-09-2021 08:00:00 11.89167 C 9.92 g/m*3 11.89 C 0.93333 km/h
178 24-09-2021 09:00:00 12.425 C 10.39 g/m*3 12.43 C 3.08333 km/h
179 24-09-2021 10:00:00 14.59167 C 11.6 g/m*3 14.59 C 5.90833 km/h
180 24-09-2021 11:00:00 16.49167 C 12.3 g/m*3 16.49 C 5.1 km/h
181 24-09-2021 12:00:00 18.525 C 12.95 g/m*3 18.52 C 8.05833 km/h
182 24-09-2021 13:00:00 19.35833 C 12.75 g/m*3 19.36 C 10.9 km/h
183 24-09-2021 14:00:00 19.64167 C 12.68 g/m*3 19.64 C 13.56667 km/h
184 24-09-2021 15:00:00 19.18333 C 12.3 g/m*3 19.18 C 12.23333 km/h
185 24-09-2021 16:00:00 19.33333 C 12.63 g/m*3 19.33 C 10.35 km/h
186 24-09-2021 17:00:00 20.68333 C 12.96 g/m*3 20.68 C 5.48333 km/h
187 24-09-2021 18:00:00 19.85 C 13.09 g/m*3 19.85 C 2.93333 km/h
188 24-09-2021 19:00:00 16.875 C 12.26 g/m*3 16.88 C 4.4 km/h
189 24-09-2021 20:00:00 15.55 C 11.88 g/m*3 15.55 C 2.53333 km/h
190 24-09-2021 21:00:00 14.875 C 11.54 g/m*3 14.88 C 4.825 km/h
191 24-09-2021 22:00:00 14.8 C 11.28 g/m*3 14.8 C 5.075 km/h
192 24-09-2021 23:00:00 14.11667 C 10.85 g/m*3 14.12 C 1.33333 km/h
193 25-09-2021 00:00:00 13.19167 C 10.51 g/m*3 13.19 C 0.66667 km/h
194 25-09-2021 01:00:00 12.74167 C 10.38 g/m*3 12.74 C 0 km/h
195 25-09-2021 02:00:00 12.15833 C 10.06 g/m*3 12.16 C 0 km/h
196 25-09-2021 03:00:00 11.3 C 9.52 g/m*3 11.3 C 0 km/h
197 25-09-2021 04:00:00 10.80833 C 9.35 g/m*3 10.81 C 0 km/h
198 25-09-2021 05:00:00 10.53333 C 9.23 g/m*3 10.53 C 0 km/h
199 25-09-2021 06:00:00 10.65 C 9.34 g/m*3 10.65 C 0 km/h
200 25-09-2021 07:00:00 10.49167 C 9.25 g/m*3 10.49 C 0 km/h
Sensor: Nr:Datum:Temp:Abs-Feuchte:Windchill:Wind:
Aussen-T/F 201 25-09-2021 08:00:00 10.425 C 9.27 g/m*3 10.43 C 0 km/h
202 25-09-2021 09:00:00 11.225 C 9.77 g/m*3 11.23 C 0 km/h
203 25-09-2021 10:00:00 12.06667 C 10.35 g/m*3 12.07 C 0 km/h
204 25-09-2021 11:00:00 13.51667 C 11.36 g/m*3 13.52 C 0 km/h
205 25-09-2021 12:00:00 15.16667 C 12.46 g/m*3 15.17 C 0 km/h
206 25-09-2021 13:00:00 16.98333 C 13.07 g/m*3 16.98 C 0 km/h
207 25-09-2021 14:00:00 19.50833 C 13.63 g/m*3 19.51 C 0 km/h
208 25-09-2021 15:00:00 20.625 C 13.83 g/m*3 20.63 C 0 km/h
209 25-09-2021 16:00:00 19.51667 C 13.69 g/m*3 19.52 C 0 km/h
210 25-09-2021 17:00:00 19.4 C 13.65 g/m*3 19.4 C 0 km/h
211 25-09-2021 18:00:00 20.875 C 13.9 g/m*3 20.88 C 0 km/h
212 25-09-2021 19:00:00 17.91667 C 12.12 g/m*3 17.92 C 0 km/h
213 25-09-2021 20:00:00 15.775 C 11.39 g/m*3 15.78 C 0 km/h
214 25-09-2021 21:00:00 14.73333 C 11.13 g/m*3 14.73 C 0 km/h
215 25-09-2021 22:00:00 14.66667 C 11.38 g/m*3 14.67 C 0 km/h
216 25-09-2021 23:00:00 14.93333 C 11.73 g/m*3 14.93 C 0 km/h
217 26-09-2021 00:00:00 15.09167 C 11.86 g/m*3 15.09 C 0 km/h
218 26-09-2021 01:00:00 14.90833 C 11.74 g/m*3 14.91 C 0 km/h
219 26-09-2021 02:00:00 14.71667 C 11.62 g/m*3 14.72 C 0 km/h
220 26-09-2021 03:00:00 13.79167 C 11.01 g/m*3 13.79 C 0 km/h
221 26-09-2021 04:00:00 13.76667 C 11.18 g/m*3 13.77 C 0 km/h
222 26-09-2021 05:00:00 13.26667 C 10.84 g/m*3 13.27 C 0 km/h
223 26-09-2021 06:00:00 12.775 C 10.57 g/m*3 12.78 C 0 km/h
224 26-09-2021 07:00:00 12.5 C 10.44 g/m*3 12.5 C 0 km/h
225 26-09-2021 08:00:00 12.51667 C 10.53 g/m*3 12.52 C 0 km/h
Sensor: Nr:Datum:Temp:Abs-Feuchte:Windchill:Wind:
Aussen-T/F 226 26-09-2021 09:00:00 13.975 C 11.61 g/m*3 13.98 C 0 km/h
227 26-09-2021 10:00:00 15.6 C 12.76 g/m*3 15.6 C 1.06667 km/h
228 26-09-2021 11:00:00 17.725 C 13.93 g/m*3 17.73 C 3.60833 km/h
229 26-09-2021 12:00:00 18.68333 C 14.17 g/m*3 18.68 C 5.48333 km/h
230 26-09-2021 13:00:00 19.59167 C 14.51 g/m*3 19.59 C 3.49167 km/h
231 26-09-2021 14:00:00 19.34167 C 14.91 g/m*3 19.34 C 0.4 km/h
232 26-09-2021 15:00:00 19.25 C 14.95 g/m*3 19.25 C 1.33333 km/h
233 26-09-2021 16:00:00 19.30833 C 15.03 g/m*3 19.31 C 0.13333 km/h
234 26-09-2021 17:00:00 19.25833 C 14.89 g/m*3 19.26 C 0.4 km/h
235 26-09-2021 18:00:00 18.74167 C 14.47 g/m*3 18.74 C 1.2 km/h
236 26-09-2021 19:00:00 17.7 C 13.81 g/m*3 17.7 C 0.66667 km/h
237 26-09-2021 20:00:00 17.11667 C 13.62 g/m*3 17.12 C 1.33333 km/h
238 26-09-2021 21:00:00 16.78333 C 13.44 g/m*3 16.78 C 2 km/h
239 26-09-2021 22:00:00 16.15833 C 13.06 g/m*3 16.16 C 2.13333 km/h
240 26-09-2021 23:00:00 15.43333 C 12.51 g/m*3 15.43 C 0.93333 km/h
241 27-09-2021 00:00:00 14.625 C 11.91 g/m*3 14.63 C 0.26667 km/h
242 27-09-2021 01:00:00 13.90833 C 11.41 g/m*3 13.91 C 0.13333 km/h
243 27-09-2021 02:00:00 13.30833 C 11.08 g/m*3 13.31 C 0 km/h
244 27-09-2021 03:00:00 13.05833 C 10.93 g/m*3 13.06 C 0 km/h
245 27-09-2021 04:00:00 13.45 C 11.25 g/m*3 13.45 C 0.13333 km/h
246 27-09-2021 05:00:00 13.60833 C 11.42 g/m*3 13.61 C 0.26667 km/h
247 27-09-2021 06:00:00 13.50833 C 11.33 g/m*3 13.51 C 0 km/h
248 27-09-2021 07:00:00 13.65 C 11.45 g/m*3 13.65 C 0 km/h
249 27-09-2021 08:00:00 14.01667 C 11.71 g/m*3 14.02 C 0.26667 km/h
250 27-09-2021 09:00:00 14.96667 C 12.41 g/m*3 14.97 C 1.61667 km/h
Sensor: Nr:Datum:Temp:Abs-Feuchte:Windchill:Wind:
Aussen-T/F 251 27-09-2021 10:00:00 15.8 C 13.07 g/m*3 15.8 C 1.33333 km/h
252 27-09-2021 11:00:00 17.73333 C 14.12 g/m*3 17.73 C 2.93333 km/h
253 27-09-2021 12:00:00 19.49167 C 14.26 g/m*3 19.49 C 5.61667 km/h
254 27-09-2021 13:00:00 20.26667 C 14.38 g/m*3 20.27 C 3.86667 km/h
255 27-09-2021 14:00:00 20.35 C 14.1 g/m*3 20.35 C 7.25 km/h
256 27-09-2021 15:00:00 20.31667 C 14.47 g/m*3 20.32 C 1.74167 km/h
257 27-09-2021 16:00:00 20.00833 C 14.6 g/m*3 20.01 C 0 km/h
258 27-09-2021 17:00:00 19.18333 C 14.41 g/m*3 19.18 C 0.26667 km/h
259 27-09-2021 18:00:00 18.425 C 14.11 g/m*3 18.43 C 1.46667 km/h
260 27-09-2021 19:00:00 17.525 C 13.76 g/m*3 17.52 C 1.06667 km/h
261 27-09-2021 20:00:00 16.45833 C 13 g/m*3 16.46 C 7.23333 km/h
262 27-09-2021 21:00:00 14.59167 C 11.53 g/m*3 14.59 C 3.48333 km/h
263 27-09-2021 22:00:00 13.38333 C 10.88 g/m*3 13.38 C 2.66667 km/h
264 27-09-2021 23:00:00 12.725 C 10.55 g/m*3 12.73 C 3.06667 km/h
265 28-09-2021 00:00:00 11.95833 C 10.08 g/m*3 11.96 C 2.53333 km/h
266 28-09-2021 01:00:00 11.59167 C 9.87 g/m*3 11.59 C 0.4 km/h
267 28-09-2021 02:00:00 11.23333 C 9.73 g/m*3 11.23 C 0.53333 km/h
268 28-09-2021 03:00:00 11.09167 C 9.66 g/m*3 11.09 C 0.8 km/h
269 28-09-2021 04:00:00 10.95 C 9.59 g/m*3 10.95 C 2.66667 km/h
270 28-09-2021 05:00:00 10.81667 C 9.5 g/m*3 10.82 C 2.53333 km/h
271 28-09-2021 06:00:00 10.4 C 9.25 g/m*3 10.4 C 2.4 km/h
272 28-09-2021 07:00:00 9.65833 C 8.83 g/m*3 9.66 C 0.4 km/h
273 28-09-2021 08:00:00 9.70833 C 8.91 g/m*3 9.71 C 4 km/h
274 28-09-2021 09:00:00 10.90833 C 9.65 g/m*3 10.91 C 1.73333 km/h
275 28-09-2021 10:00:00 12.04167 C 10.32 g/m*3 12.04 C 7.24167 km/h
Sensor: Nr:Datum:Temp:Abs-Feuchte:Windchill:Wind:
Aussen-T/F 276 28-09-2021 11:00:00 12.975 C 10.55 g/m*3 12.98 C 3.46667 km/h
277 28-09-2021 12:00:00 14.125 C 10.81 g/m*3 14.13 C 3.33333 km/h
278 28-09-2021 13:00:00 14.93333 C 11.03 g/m*3 14.93 C 4.26667 km/h
279 28-09-2021 14:00:00 16.25 C 11.23 g/m*3 16.25 C 4.8 km/h
280 28-09-2021 15:00:00 17 C 10.95 g/m*3 17 C 3.33333 km/h
281 28-09-2021 16:00:00 17.15 C 10.95 g/m*3 17.15 C 2.13333 km/h
282 28-09-2021 17:00:00 17.1 C 11.91 g/m*3 17.1 C 1.06667 km/h
283 28-09-2021 18:00:00 14.93333 C 10.88 g/m*3 14.93 C 2.8 km/h
284 28-09-2021 19:00:00 13.375 C 10.31 g/m*3 13.38 C 3.6 km/h
285 28-09-2021 20:00:00 12.55 C 10.07 g/m*3 12.55 C 1.86667 km/h
286 28-09-2021 21:00:00 11.85 C 9.76 g/m*3 11.85 C 0 km/h
287 28-09-2021 22:00:00 11.38333 C 9.59 g/m*3 11.38 C 0 km/h
288 28-09-2021 23:00:00 10.93333 C 9.37 g/m*3 10.93 C 0 km/h
289 29-09-2021 00:00:00 10.34167 C 9.07 g/m*3 10.34 C 0 km/h
290 29-09-2021 01:00:00 10.23333 C 9.06 g/m*3 10.23 C 0 km/h
291 29-09-2021 02:00:00 9.93333 C 8.89 g/m*3 9.93 C 0 km/h
292 29-09-2021 03:00:00 9.74167 C 8.8 g/m*3 9.74 C 0 km/h
293 29-09-2021 04:00:00 9.35 C 8.59 g/m*3 9.35 C 0 km/h
294 29-09-2021 05:00:00 8.98333 C 8.44 g/m*3 8.98 C 0 km/h
295 29-09-2021 06:00:00 8.63333 C 8.27 g/m*3 8.63 C 0 km/h
296 29-09-2021 07:00:00 8.34167 C 8.11 g/m*3 8.34 C 0.53333 km/h
297 29-09-2021 08:00:00 9.075 C 8.57 g/m*3 9.07 C 1.46667 km/h
298 29-09-2021 09:00:00 10.35 C 9.32 g/m*3 10.35 C 2.13333 km/h
299 29-09-2021 10:00:00 11.825 C 10.23 g/m*3 11.83 C 2.41667 km/h
300 29-09-2021 11:00:00 14.24167 C 11.02 g/m*3 14.24 C 12.9 km/h
Sensor: Nr:Datum:Temp:Abs-Feuchte:Windchill:Wind:
Aussen-T/F 301 29-09-2021 12:00:00 15.05 C 10.96 g/m*3 15.05 C 13.425 km/h
302 29-09-2021 13:00:00 13.05 C 10.62 g/m*3 13.05 C 9.68333 km/h
303 29-09-2021 14:00:00 14.09167 C 10.63 g/m*3 14.09 C 12.35833 km/h
304 29-09-2021 15:00:00 14.58333 C 9.79 g/m*3 14.58 C 14.9 km/h
305 29-09-2021 16:00:00 14.95 C 9.09 g/m*3 14.95 C 15.96667 km/h
306 29-09-2021 17:00:00 15.45 C 8.94 g/m*3 15.45 C 11.69167 km/h
307 29-09-2021 18:00:00 15.85 C 8.43 g/m*3 15.85 C 10.075 km/h
308 29-09-2021 19:00:00 12.875 C 8.05 g/m*3 12.88 C 7.5 km/h
309 29-09-2021 20:00:00 10.48333 C 7.86 g/m*3 9.83 C 6.825 km/h
310 29-09-2021 21:00:00 9.65833 C 7.88 g/m*3 9.66 C 4.4 km/h
311 29-09-2021 22:00:00 9.28333 C 7.92 g/m*3 9.28 C 4.14167 km/h
312 29-09-2021 23:00:00 8.79167 C 7.76 g/m*3 8.79 C 2.66667 km/h
313 30-09-2021 00:00:00 9.28333 C 7.78 g/m*3 8.83 C 5.35833 km/h
314 30-09-2021 01:00:00 8.89167 C 7.71 g/m*3 8.47 C 5.1 km/h
315 30-09-2021 02:00:00 9.03333 C 7.77 g/m*3 8.14 C 6.85 km/h
316 30-09-2021 03:00:00 8.89167 C 7.7 g/m*3 7.69 C 8.05833 km/h
317 30-09-2021 04:00:00 8.65 C 7.64 g/m*3 7.47 C 7.79167 km/h
318 30-09-2021 05:00:00 8.3 C 7.53 g/m*3 7.22 C 7.125 km/h
319 30-09-2021 06:00:00 7.85 C 7.47 g/m*3 7.85 C 4.80833 km/h
320 30-09-2021 07:00:00 7.93333 C 7.51 g/m*3 6.27 C 9.425 km/h
321 30-09-2021 08:00:00 7.73333 C 7.49 g/m*3 6.3 C 8.20833 km/h
322 30-09-2021 09:00:00 8.29167 C 7.72 g/m*3 6.57 C 10.1 km/h
323 30-09-2021 10:00:00 9.16667 C 8.05 g/m*3 8.07 C 7.79167 km/h
324 30-09-2021 11:00:00 10.49167 C 8.5 g/m*3 9.93 C 6.43333 km/h
325 30-09-2021 12:00:00 12.2 C 8.78 g/m*3 12.2 C 9.68333 km/h
Sensor: Nr:Datum:Temp:Abs-Feuchte:Windchill:Wind:
Aussen-T/F 326 30-09-2021 13:00:00 13.36667 C 8.77 g/m*3 13.37 C 12.23333 km/h
327 30-09-2021 14:00:00 14.70833 C 8.71 g/m*3 14.71 C 10.60833 km/h
328 30-09-2021 15:00:00 14.86667 C 8.53 g/m*3 14.87 C 9.01667 km/h
329 30-09-2021 16:00:00 14.95833 C 8.44 g/m*3 14.96 C 6.05833 km/h
330 30-09-2021 17:00:00 14.45 C 9.81 g/m*3 14.45 C 0.66667 km/h
331 30-09-2021 18:00:00 13.25833 C 9.62 g/m*3 13.26 C 0.26667 km/h
332 30-09-2021 19:00:00 11.84167 C 9.11 g/m*3 11.84 C 2 km/h
333 30-09-2021 20:00:00 11.175 C 8.95 g/m*3 11.18 C 1.73333 km/h
334 30-09-2021 21:00:00 10.51667 C 8.66 g/m*3 10.52 C 1.33333 km/h
335 30-09-2021 22:00:00 9.91667 C 8.48 g/m*3 9.92 C 1.86667 km/h
336 30-09-2021 23:00:00 9.85 C 8.49 g/m*3 9.85 C 0 km/h
337 01-10-2021 00:00:00 9.15833 C 8.1 g/m*3 9.16 C 1.33333 km/h
338 01-10-2021 01:00:00 8.33333 C 7.69 g/m*3 8.33 C 0.66667 km/h
339 01-10-2021 02:00:00 7.64167 C 7.45 g/m*3 7.64 C 0.4 km/h
340 01-10-2021 03:00:00 7.05 C 7.23 g/m*3 7.05 C 0.13333 km/h
341 01-10-2021 04:00:00 7 C 7.28 g/m*3 7 C 0 km/h
342 01-10-2021 05:00:00 6.86667 C 7.22 g/m*3 6.87 C 0 km/h
343 01-10-2021 06:00:00 6.38333 C 7.04 g/m*3 6.38 C 0.13333 km/h
344 01-10-2021 07:00:00 5.875 C 6.84 g/m*3 5.88 C 0 km/h
345 01-10-2021 08:00:00 5.83333 C 6.82 g/m*3 5.83 C 0 km/h
346 01-10-2021 09:00:00 6.475 C 7.19 g/m*3 6.48 C 0.13333 km/h
347 01-10-2021 10:00:00 8.5 C 8.26 g/m*3 8.5 C 0.13333 km/h
348 01-10-2021 11:00:00 10.40833 C 9.25 g/m*3 10.41 C 1.73333 km/h
349 01-10-2021 12:00:00 12.95833 C 9.91 g/m*3 12.96 C 4.55833 km/h
350 01-10-2021 13:00:00 15.55833 C 9.54 g/m*3 15.56 C 7.9 km/h
Sensor: Nr:Datum:Temp:Abs-Feuchte:Windchill:Wind:
Aussen-T/F 351 01-10-2021 14:00:00 17.55 C 9.28 g/m*3 17.55 C 7.24167 km/h
352 01-10-2021 15:00:00 18.19167 C 9.53 g/m*3 18.19 C 6.3 km/h
353 01-10-2021 16:00:00 18 C 10.97 g/m*3 18 C 1.46667 km/h
354 01-10-2021 17:00:00 16.15833 C 10.6 g/m*3 16.16 C 5.34167 km/h
355 01-10-2021 18:00:00 14.25 C 9.84 g/m*3 14.25 C 6.40833 km/h
356 01-10-2021 19:00:00 13.00833 C 9.41 g/m*3 13.01 C 4.54167 km/h
357 01-10-2021 20:00:00 12.51667 C 9.35 g/m*3 12.52 C 2.93333 km/h
358 01-10-2021 21:00:00 12.34167 C 9.4 g/m*3 12.34 C 1.86667 km/h
359 01-10-2021 22:00:00 12.26667 C 9.46 g/m*3 12.27 C 0.26667 km/h
360 01-10-2021 23:00:00 12.375 C 9.83 g/m*3 12.38 C 1.46667 km/h
361 02-10-2021 00:00:00 12.20833 C 9.82 g/m*3 12.21 C 1.875 km/h
362 02-10-2021 01:00:00 13.4 C 9.91 g/m*3 13.4 C 6.30833 km/h
363 02-10-2021 02:00:00 13.575 C 9.99 g/m*3 13.58 C 2.53333 km/h
364 02-10-2021 03:00:00 13.225 C 10.17 g/m*3 13.23 C 2.80833 km/h
365 02-10-2021 04:00:00 12.80833 C 10.28 g/m*3 12.81 C 2.675 km/h
366 02-10-2021 05:00:00 12.8 C 10.39 g/m*3 12.8 C 0.66667 km/h
367 02-10-2021 06:00:00 12.86667 C 10.46 g/m*3 12.87 C 0.53333 km/h
368 02-10-2021 07:00:00 12.8 C 10.48 g/m*3 12.8 C 0.53333 km/h
369 02-10-2021 08:00:00 12.83333 C 10.58 g/m*3 12.83 C 0.26667 km/h
370 02-10-2021 09:00:00 13.35833 C 10.92 g/m*3 13.36 C 0.4 km/h
371 02-10-2021 10:00:00 14.41667 C 11.32 g/m*3 14.42 C 0.26667 km/h
372 02-10-2021 11:00:00 15.33333 C 11.52 g/m*3 15.33 C 1.6 km/h
373 02-10-2021 12:00:00 16.05 C 11.64 g/m*3 16.05 C 3.34167 km/h
374 02-10-2021 13:00:00 16.79167 C 11.79 g/m*3 16.79 C 7.11667 km/h
375 02-10-2021 14:00:00 17.46667 C 11.79 g/m*3 17.47 C 6.45 km/h
Sensor: Nr:Datum:Temp:Abs-Feuchte:Windchill:Wind:
Aussen-T/F 376 02-10-2021 15:00:00 18.48333 C 12.32 g/m*3 18.48 C 2.8 km/h
377 02-10-2021 16:00:00 18.16667 C 12.56 g/m*3 18.17 C 3.75833 km/h
378 02-10-2021 17:00:00 17.83333 C 12.71 g/m*3 17.83 C 2.26667 km/h
379 02-10-2021 18:00:00 16.51667 C 12.1 g/m*3 16.52 C 2.8 km/h
380 02-10-2021 19:00:00 15.18333 C 11.54 g/m*3 15.18 C 1.46667 km/h
381 02-10-2021 20:00:00 14.85 C 11.29 g/m*3 14.85 C 1.73333 km/h
382 02-10-2021 21:00:00 15.45 C 11.42 g/m*3 15.45 C 3.6 km/h
383 02-10-2021 22:00:00 16.26667 C 11.87 g/m*3 16.27 C 4.95833 km/h
384 02-10-2021 23:00:00 17.66667 C 12.12 g/m*3 17.67 C 5.76667 km/h
385 03-10-2021 00:00:00 18.075 C 12.05 g/m*3 18.08 C 7.10833 km/h
386 03-10-2021 01:00:00 18.3 C 11.96 g/m*3 18.3 C 4.80833 km/h
387 03-10-2021 02:00:00 18.85 C 11.66 g/m*3 18.85 C 9.95 km/h
388 03-10-2021 03:00:00 18.98333 C 11.84 g/m*3 18.98 C 6.71667 km/h
389 03-10-2021 04:00:00 18.825 C 12.23 g/m*3 18.83 C 3.74167 km/h
390 03-10-2021 05:00:00 17.85 C 12.23 g/m*3 17.85 C 3.35 km/h
391 03-10-2021 06:00:00 18.50833 C 12.08 g/m*3 18.51 C 6.70833 km/h
392 03-10-2021 07:00:00 19.35833 C 12.03 g/m*3 19.36 C 6.15 km/h
393 03-10-2021 08:00:00 18.86667 C 11.99 g/m*3 18.87 C 4.55 km/h
394 03-10-2021 09:00:00 19.33333 C 11.8 g/m*3 19.33 C 6.44167 km/h
395 03-10-2021 10:00:00 20.125 C 12.07 g/m*3 20.13 C 7.78333 km/h
396 03-10-2021 11:00:00 19.48333 C 12.66 g/m*3 19.48 C 6.43333 km/h
397 03-10-2021 12:00:00 19.76667 C 12.36 g/m*3 19.77 C 7.65 km/h
398 03-10-2021 13:00:00 21.50833 C 12.23 g/m*3 21.51 C 7.93333 km/h
399 03-10-2021 14:00:00 22.86667 C 12.19 g/m*3 22.87 C 12.75833 km/h
400 03-10-2021 15:00:00 21.225 C 12.71 g/m*3 21.23 C 12.48333 km/h
Sensor: Nr:Datum:Temp:Abs-Feuchte:Windchill:Wind:
Aussen-T/F 401 03-10-2021 16:00:00 19.36667 C 13.21 g/m*3 19.37 C 9.11667 km/h
402 03-10-2021 17:00:00 19.15833 C 12.68 g/m*3 19.16 C 10.225 km/h
403 03-10-2021 18:00:00 18.63333 C 12.56 g/m*3 18.63 C 8.05833 km/h
404 03-10-2021 19:00:00 17.81667 C 12.42 g/m*3 17.82 C 4.28333 km/h
405 03-10-2021 20:00:00 16.13333 C 11.8 g/m*3 16.13 C 8.725 km/h
406 03-10-2021 21:00:00 14.13333 C 10.73 g/m*3 14.13 C 2.8 km/h
407 03-10-2021 22:00:00 13.51667 C 10.3 g/m*3 13.52 C 5.1 km/h
408 03-10-2021 23:00:00 13.50833 C 9.91 g/m*3 13.51 C 6.425 km/h
409 04-10-2021 00:00:00 13.30833 C 9.93 g/m*3 13.31 C 5.625 km/h
410 04-10-2021 01:00:00 13.125 C 9.9 g/m*3 13.13 C 3.475 km/h
411 04-10-2021 02:00:00 12.9 C 9.79 g/m*3 12.9 C 6.56667 km/h
412 04-10-2021 03:00:00 12.825 C 9.72 g/m*3 12.83 C 1.33333 km/h
413 04-10-2021 04:00:00 12.325 C 9.71 g/m*3 12.33 C 0.26667 km/h
414 04-10-2021 05:00:00 12.125 C 9.78 g/m*3 12.13 C 0 km/h
415 04-10-2021 06:00:00 11.8 C 9.68 g/m*3 11.8 C 0.8 km/h
416 04-10-2021 07:00:00 11.79167 C 9.77 g/m*3 11.79 C 1.6 km/h
417 04-10-2021 08:00:00 12.05 C 9.9 g/m*3 12.05 C 0.26667 km/h
418 04-10-2021 09:00:00 12.6 C 10.29 g/m*3 12.6 C 0 km/h
419 04-10-2021 10:00:00 13.49167 C 10.4 g/m*3 13.49 C 0.53333 km/h
420 04-10-2021 11:00:00 14.83333 C 10.4 g/m*3 14.83 C 4.14167 km/h
421 04-10-2021 12:00:00 15.89167 C 10.41 g/m*3 15.89 C 5.90833 km/h
422 04-10-2021 13:00:00 16.675 C 10.28 g/m*3 16.68 C 8.05833 km/h
423 04-10-2021 14:00:00 17.03333 C 10.08 g/m*3 17.03 C 5.78333 km/h
424 04-10-2021 15:00:00 17.525 C 10.27 g/m*3 17.52 C 4.7 km/h
425 04-10-2021 16:00:00 17.13333 C 10.6 g/m*3 17.13 C 2.00833 km/h
Sensor: Nr:Datum:Temp:Abs-Feuchte:Windchill:Wind:
Aussen-T/F 426 04-10-2021 17:00:00 16.85 C 11.08 g/m*3 16.85 C 0 km/h
427 04-10-2021 18:00:00 17.4 C 10.94 g/m*3 17.4 C 0.26667 km/h
428 04-10-2021 19:00:00 13.04167 C 9.41 g/m*3 13.04 C 5.6 km/h
429 04-10-2021 20:00:00 11.25833 C 9 g/m*3 11.26 C 2 km/h
430 04-10-2021 21:00:00 10.43333 C 8.75 g/m*3 10.43 C 0.4 km/h
431 04-10-2021 22:00:00 10.36667 C 8.85 g/m*3 10.37 C 0 km/h
432 04-10-2021 23:00:00 10 C 8.68 g/m*3 10 C 0.13333 km/h
433 05-10-2021 00:00:00 9.65833 C 8.55 g/m*3 9.66 C 0 km/h
434 05-10-2021 01:00:00 9.40833 C 8.49 g/m*3 9.41 C 0 km/h
435 05-10-2021 02:00:00 9.58333 C 8.65 g/m*3 9.58 C 0 km/h
436 05-10-2021 03:00:00 9.34167 C 8.52 g/m*3 9.34 C 0 km/h
437 05-10-2021 04:00:00 9.475 C 8.63 g/m*3 9.48 C 0.26667 km/h
438 05-10-2021 05:00:00 9.375 C 8.58 g/m*3 9.38 C 0.26667 km/h
439 05-10-2021 06:00:00 9.28333 C 8.53 g/m*3 9.28 C 0 km/h
440 05-10-2021 07:00:00 9.325 C 8.6 g/m*3 9.32 C 0 km/h
441 05-10-2021 08:00:00 9.59167 C 8.79 g/m*3 9.59 C 0 km/h
442 05-10-2021 09:00:00 10.51667 C 9.32 g/m*3 10.52 C 0.4 km/h
443 05-10-2021 10:00:00 11.51667 C 9.9 g/m*3 11.52 C 0.13333 km/h
444 05-10-2021 11:00:00 12.875 C 10.36 g/m*3 12.88 C 3.34167 km/h
445 05-10-2021 12:00:00 14.53333 C 10.28 g/m*3 14.53 C 4.40833 km/h
446 05-10-2021 13:00:00 15.95833 C 9.85 g/m*3 15.96 C 8.05833 km/h
447 05-10-2021 14:00:00 17.5 C 10.08 g/m*3 17.5 C 11.29167 km/h
448 05-10-2021 15:00:00 17.73333 C 10.48 g/m*3 17.73 C 5.09167 km/h
449 05-10-2021 16:00:00 17.575 C 10.61 g/m*3 17.58 C 2.68333 km/h
450 05-10-2021 17:00:00 15.775 C 11.28 g/m*3 15.78 C 1.73333 km/h
Sensor: Nr:Datum:Temp:Abs-Feuchte:Windchill:Wind:
Aussen-T/F 451 05-10-2021 18:00:00 14.3 C 11.23 g/m*3 14.3 C 0.93333 km/h
452 05-10-2021 19:00:00 13.65 C 10.97 g/m*3 13.65 C 5.49167 km/h
453 05-10-2021 20:00:00 12.8 C 10.3 g/m*3 12.8 C 6.15833 km/h
454 05-10-2021 21:00:00 11.70833 C 9.69 g/m*3 11.71 C 5.35833 km/h
455 05-10-2021 22:00:00 11.075 C 9.35 g/m*3 11.08 C 5.21667 km/h
456 05-10-2021 23:00:00 10.975 C 9.32 g/m*3 10.98 C 4.81667 km/h
457 06-10-2021 00:00:00 11.025 C 9.27 g/m*3 11.03 C 8.45833 km/h
458 06-10-2021 01:00:00 11.09167 C 9.17 g/m*3 11.09 C 7.39167 km/h
459 06-10-2021 02:00:00 10.775 C 8.98 g/m*3 10.42 C 5.75833 km/h
460 06-10-2021 03:00:00 11.3 C 9.04 g/m*3 11.3 C 10.5 km/h
461 06-10-2021 04:00:00 11.09167 C 8.84 g/m*3 11.09 C 9 km/h
462 06-10-2021 05:00:00 10.85 C 8.77 g/m*3 9.7 C 9.675 km/h
463 06-10-2021 06:00:00 10.45 C 8.66 g/m*3 10.45 C 4.54167 km/h
464 06-10-2021 07:00:00 10.09167 C 8.58 g/m*3 9.83 C 5.08333 km/h
465 06-10-2021 08:00:00 10.825 C 8.79 g/m*3 10.08 C 7.50833 km/h
466 06-10-2021 09:00:00 11.70833 C 8.84 g/m*3 11.71 C 14.5 km/h
467 06-10-2021 10:00:00 12.53333 C 8.91 g/m*3 12.53 C 16.1 km/h
468 06-10-2021 11:00:00 12.10833 C 9.01 g/m*3 12.11 C 9.275 km/h
469 06-10-2021 12:00:00 12.375 C 9.14 g/m*3 12.38 C 13.03333 km/h
470 06-10-2021 13:00:00 13.23333 C 9.05 g/m*3 13.23 C 16.36667 km/h
471 06-10-2021 14:00:00 13.91667 C 9.33 g/m*3 13.92 C 14.63333 km/h
472 06-10-2021 15:00:00 13.93333 C 9.22 g/m*3 13.93 C 15.7 km/h
473 06-10-2021 16:00:00 13.49167 C 9.25 g/m*3 13.49 C 12.63333 km/h
474 06-10-2021 17:00:00 13.95833 C 9.49 g/m*3 13.96 C 13.15833 km/h
475 06-10-2021 18:00:00 13.00833 C 9.39 g/m*3 13.01 C 6.71667 km/h
Sensor: Nr:Datum:Temp:Abs-Feuchte:Windchill:Wind:
Aussen-T/F 476 06-10-2021 19:00:00 12.51667 C 9.41 g/m*3 12.52 C 5.88333 km/h
477 06-10-2021 20:00:00 11.8 C 9.46 g/m*3 11.8 C 5.35833 km/h
478 06-10-2021 21:00:00 11.35 C 9.46 g/m*3 11.35 C 4.41667 km/h
479 06-10-2021 22:00:00 11.16667 C 9.47 g/m*3 11.17 C 6.3 km/h
480 06-10-2021 23:00:00 11.09167 C 9.46 g/m*3 11.09 C 5.225 km/h
481 07-10-2021 00:00:00 11.05 C 9.52 g/m*3 11.05 C 5.5 km/h
482 07-10-2021 01:00:00 10.98333 C 9.5 g/m*3 10.98 C 4.40833 km/h
483 07-10-2021 02:00:00 11.01667 C 9.52 g/m*3 11.02 C 1.6 km/h
484 07-10-2021 03:00:00 10.98333 C 9.5 g/m*3 10.98 C 0.13333 km/h
485 07-10-2021 04:00:00 10.9 C 9.54 g/m*3 10.9 C 0.66667 km/h
486 07-10-2021 05:00:00 11.03333 C 9.63 g/m*3 11.03 C 0.13333 km/h
487 07-10-2021 06:00:00 11.1 C 9.67 g/m*3 11.1 C 0 km/h
488 07-10-2021 07:00:00 11.05833 C 9.64 g/m*3 11.06 C 0 km/h
489 07-10-2021 08:00:00 11.19167 C 9.73 g/m*3 11.19 C 0 km/h
490 07-10-2021 09:00:00 11.65 C 10.01 g/m*3 11.65 C 1.73333 km/h
491 07-10-2021 10:00:00 12.03333 C 10.18 g/m*3 12.03 C 0.93333 km/h
492 07-10-2021 11:00:00 12.79167 C 10.69 g/m*3 12.79 C 1.06667 km/h
493 07-10-2021 12:00:00 13.61667 C 10.68 g/m*3 13.62 C 2.13333 km/h
494 07-10-2021 13:00:00 14.575 C 10.56 g/m*3 14.58 C 2.675 km/h
495 07-10-2021 14:00:00 15.33333 C 10.52 g/m*3 15.33 C 5.08333 km/h
496 07-10-2021 15:00:00 16.125 C 10.39 g/m*3 16.13 C 7.24167 km/h
497 07-10-2021 16:00:00 16.325 C 10.25 g/m*3 16.33 C 9.15 km/h
498 07-10-2021 17:00:00 16.525 C 10.51 g/m*3 16.52 C 3.475 km/h
499 07-10-2021 18:00:00 15.71667 C 10.64 g/m*3 15.72 C 3.06667 km/h
500 07-10-2021 19:00:00 12.45833 C 9.51 g/m*3 12.46 C 3.46667 km/h
Sensor: Nr:Datum:Temp:Abs-Feuchte:Windchill:Wind:
Aussen-T/F 501 07-10-2021 20:00:00 10.85833 C 8.97 g/m*3 10.86 C 1.46667 km/h
502 07-10-2021 21:00:00 9.58333 C 8.43 g/m*3 9.58 C 0.13333 km/h
503 07-10-2021 22:00:00 8.81667 C 8.12 g/m*3 8.82 C 0 km/h
504 07-10-2021 23:00:00 8.23333 C 7.89 g/m*3 8.23 C 0 km/h
505 08-10-2021 00:00:00 7.75 C 7.69 g/m*3 7.75 C 0 km/h
506 08-10-2021 01:00:00 7.275 C 7.49 g/m*3 7.28 C 0 km/h
507 08-10-2021 02:00:00 7.39167 C 7.58 g/m*3 7.39 C 0 km/h
508 08-10-2021 03:00:00 8.025 C 7.95 g/m*3 8.03 C 0 km/h
509 08-10-2021 04:00:00 8.15833 C 8.02 g/m*3 8.16 C 0.13333 km/h
510 08-10-2021 05:00:00 8.125 C 8 g/m*3 8.13 C 0.13333 km/h
511 08-10-2021 06:00:00 7.99167 C 7.99 g/m*3 7.99 C 0.13333 km/h
512 08-10-2021 07:00:00 7.925 C 7.93 g/m*3 7.93 C 0.26667 km/h
513 08-10-2021 08:00:00 8.05833 C 8.05 g/m*3 8.06 C 0.26667 km/h
514 08-10-2021 09:00:00 8.475 C 8.27 g/m*3 8.48 C 1.46667 km/h
515 08-10-2021 10:00:00 8.86667 C 8.48 g/m*3 8.87 C 2.8 km/h
516 08-10-2021 11:00:00 9.225 C 8.68 g/m*3 9.23 C 3.33333 km/h
517 08-10-2021 12:00:00 10.18333 C 9.23 g/m*3 10.18 C 1.46667 km/h
518 08-10-2021 13:00:00 11.825 C 10.26 g/m*3 11.83 C 0.26667 km/h
519 08-10-2021 14:00:00 13.41667 C 11.28 g/m*3 13.42 C 0.13333 km/h
520 08-10-2021 15:00:00 15.525 C 11.3 g/m*3 15.53 C 6.85 km/h
521 08-10-2021 16:00:00 17.325 C 10.86 g/m*3 17.33 C 8.05833 km/h
522 08-10-2021 17:00:00 17.06667 C 11.08 g/m*3 17.07 C 3.33333 km/h
523 08-10-2021 18:00:00 16.18333 C 10.88 g/m*3 16.18 C 1.73333 km/h
524 08-10-2021 19:00:00 12.90833 C 9.85 g/m*3 12.91 C 1.33333 km/h
525 08-10-2021 20:00:00 11.71667 C 9.49 g/m*3 11.72 C 0.26667 km/h
Sensor: Nr:Datum:Temp:Abs-Feuchte:Windchill:Wind:
Aussen-T/F 526 08-10-2021 21:00:00 10.61667 C 8.96 g/m*3 10.62 C 0.13333 km/h
527 08-10-2021 22:00:00 9.78333 C 8.64 g/m*3 9.78 C 0.13333 km/h
528 08-10-2021 23:00:00 9.40833 C 8.54 g/m*3 9.41 C 0.53333 km/h
529 09-10-2021 00:00:00 9.14167 C 8.45 g/m*3 9.14 C 2 km/h
530 09-10-2021 01:00:00 8.78333 C 8.26 g/m*3 8.78 C 0.93333 km/h
531 09-10-2021 02:00:00 8.24167 C 7.98 g/m*3 8.24 C 1.06667 km/h
532 09-10-2021 03:00:00 7.55 C 7.63 g/m*3 7.55 C 0.13333 km/h
533 09-10-2021 04:00:00 7.025 C 7.4 g/m*3 7.03 C 0.4 km/h
534 09-10-2021 05:00:00 6.8 C 7.31 g/m*3 6.8 C 1.33333 km/h
535 09-10-2021 06:00:00 6.84167 C 7.36 g/m*3 6.84 C 0.8 km/h
536 09-10-2021 07:00:00 5.875 C 6.87 g/m*3 5.88 C 0 km/h
537 09-10-2021 08:00:00 6.05 C 6.99 g/m*3 6.05 C 0 km/h
538 09-10-2021 09:00:00 6.65 C 7.3 g/m*3 6.65 C 0 km/h
539 09-10-2021 10:00:00 7.28333 C 7.66 g/m*3 7.28 C 0.26667 km/h
540 09-10-2021 11:00:00 8.63333 C 8.35 g/m*3 8.63 C 0.8 km/h
541 09-10-2021 12:00:00 10 C 9.11 g/m*3 10 C 2.26667 km/h
542 09-10-2021 13:00:00 11.84167 C 10.22 g/m*3 11.84 C 2 km/h
543 09-10-2021 14:00:00 13.51667 C 10.63 g/m*3 13.52 C 1.6 km/h
544 09-10-2021 15:00:00 14.85833 C 10.59 g/m*3 14.86 C 2.8 km/h
545 09-10-2021 16:00:00 14.11667 C 10.27 g/m*3 14.12 C 2.66667 km/h
546 09-10-2021 17:00:00 14.89167 C 10.38 g/m*3 14.89 C 3.875 km/h
547 09-10-2021 18:00:00 14.46667 C 9.87 g/m*3 14.47 C 3.2 km/h
548 09-10-2021 19:00:00 11.56667 C 8.83 g/m*3 11.57 C 4.00833 km/h
549 09-10-2021 20:00:00 10.28333 C 8.4 g/m*3 10.28 C 2.13333 km/h
550 09-10-2021 21:00:00 9.41667 C 8.15 g/m*3 9.42 C 1.06667 km/h
Sensor: Nr:Datum:Temp:Abs-Feuchte:Windchill:Wind:
Aussen-T/F 551 09-10-2021 22:00:00 8.53333 C 7.75 g/m*3 8.53 C 0.26667 km/h
552 09-10-2021 23:00:00 7.325 C 7.28 g/m*3 7.33 C 0.26667 km/h
553 10-10-2021 00:00:00 6.59167 C 7.04 g/m*3 6.59 C 0 km/h
554 10-10-2021 01:00:00 6.20833 C 6.92 g/m*3 6.21 C 1.46667 km/h
555 10-10-2021 02:00:00 5.46667 C 6.59 g/m*3 5.47 C 0 km/h
556 10-10-2021 03:00:00 4.63333 C 6.25 g/m*3 4.63 C 0 km/h
557 10-10-2021 04:00:00 4.81667 C 6.38 g/m*3 4.82 C 0 km/h
558 10-10-2021 05:00:00 4.90833 C 6.45 g/m*3 4.91 C 0.4 km/h
559 10-10-2021 06:00:00 4.75833 C 6.4 g/m*3 4.76 C 0 km/h
560 10-10-2021 07:00:00 4.40833 C 6.26 g/m*3 4.41 C 0.26667 km/h
561 10-10-2021 08:00:00 4.25833 C 6.21 g/m*3 4.26 C 0.4 km/h
562 10-10-2021 09:00:00 4.525 C 6.33 g/m*3 4.53 C 1.2 km/h
563 10-10-2021 10:00:00 5.13333 C 6.62 g/m*3 5.13 C 1.06667 km/h
564 10-10-2021 11:00:00 6.00833 C 7.04 g/m*3 6.01 C 1.6 km/h
565 10-10-2021 12:00:00 7.20833 C 7.62 g/m*3 7.21 C 0.8 km/h
566 10-10-2021 13:00:00 9.46667 C 8.78 g/m*3 9.47 C 1.2 km/h
567 10-10-2021 14:00:00 11.66667 C 9.69 g/m*3 11.67 C 0.26667 km/h
568 10-10-2021 15:00:00 13.06667 C 9.68 g/m*3 13.07 C 1.2 km/h
569 10-10-2021 16:00:00 12.41667 C 9.31 g/m*3 12.42 C 1.6 km/h
570 10-10-2021 17:00:00 12.51667 C 9.42 g/m*3 12.52 C 3.6 km/h
571 10-10-2021 18:00:00 12.40833 C 8.95 g/m*3 12.41 C 5.60833 km/h
572 10-10-2021 19:00:00 9.49167 C 7.88 g/m*3 9.49 C 4.40833 km/h
573 10-10-2021 20:00:00 7.65833 C 7.29 g/m*3 7.66 C 0 km/h
574 10-10-2021 21:00:00 6.50833 C 6.93 g/m*3 6.51 C 0.13333 km/h
575 10-10-2021 22:00:00 6.00833 C 6.81 g/m*3 6.01 C 0 km/h
Sensor: Nr:Datum:Temp:Abs-Feuchte:Windchill:Wind:
Aussen-T/F 576 10-10-2021 23:00:00 5.50833 C 6.61 g/m*3 5.51 C 0.4 km/h
577 11-10-2021 00:00:00 5.075 C 6.49 g/m*3 5.08 C 0.4 km/h
578 11-10-2021 01:00:00 4.725 C 6.34 g/m*3 4.72 C 0.13333 km/h
579 11-10-2021 02:00:00 4.53333 C 6.27 g/m*3 4.53 C 1.06667 km/h
580 11-10-2021 03:00:00 4.2 C 6.14 g/m*3 4.2 C 0.13333 km/h
581 11-10-2021 04:00:00 4.78333 C 6.43 g/m*3 4.78 C 0 km/h
582 11-10-2021 05:00:00 4.925 C 6.49 g/m*3 4.93 C 0 km/h
583 11-10-2021 06:00:00 4.93333 C 6.49 g/m*3 4.93 C 0 km/h
584 11-10-2021 07:00:00 5.75833 C 6.86 g/m*3 5.76 C 1.46667 km/h
585 11-10-2021 08:00:00 6.38333 C 7.15 g/m*3 6.38 C 1.86667 km/h
586 11-10-2021 09:00:00 7.03333 C 7.47 g/m*3 7.03 C 1.73333 km/h
587 11-10-2021 10:00:00 7.78333 C 7.87 g/m*3 7.78 C 1.46667 km/h
588 11-10-2021 11:00:00 9.075 C 8.57 g/m*3 9.07 C 0.4 km/h
589 11-10-2021 12:00:00 11.06667 C 9.61 g/m*3 11.07 C 2.675 km/h
590 11-10-2021 13:00:00 13.075 C 9.9 g/m*3 13.08 C 6.85833 km/h
591 11-10-2021 14:00:00 13.55 C 9.7 g/m*3 13.55 C 6.975 km/h
592 11-10-2021 15:00:00 13.81667 C 9.4 g/m*3 13.82 C 8.31667 km/h
593 11-10-2021 16:00:00 14.075 C 9.28 g/m*3 14.08 C 8.05 km/h
594 11-10-2021 17:00:00 14.05833 C 9.26 g/m*3 14.06 C 5.225 km/h
595 11-10-2021 18:00:00 13.13333 C 9.28 g/m*3 13.13 C 2.66667 km/h
596 11-10-2021 19:00:00 10.725 C 8.61 g/m*3 10.73 C 4.53333 km/h
597 11-10-2021 20:00:00 10.15 C 8.63 g/m*3 10.15 C 1.33333 km/h
598 11-10-2021 21:00:00 9.74167 C 8.45 g/m*3 9.74 C 0 km/h
599 11-10-2021 22:00:00 9.84167 C 8.64 g/m*3 9.84 C 0.26667 km/h
600 11-10-2021 23:00:00 9.83333 C 8.74 g/m*3 9.83 C 0.93333 km/h
Sensor: Nr:Datum:Temp:Abs-Feuchte:Windchill:Wind:
Aussen-T/F 601 12-10-2021 00:00:00 9.775 C 8.75 g/m*3 9.78 C 0.26667 km/h
602 12-10-2021 01:00:00 9.63333 C 8.72 g/m*3 9.63 C 0.66667 km/h
603 12-10-2021 02:00:00 9.45 C 8.62 g/m*3 9.45 C 0 km/h
604 12-10-2021 03:00:00 9.4 C 8.63 g/m*3 9.4 C 0.66667 km/h
605 12-10-2021 04:00:00 9.5 C 8.74 g/m*3 9.5 C 0.26667 km/h
606 12-10-2021 05:00:00 9.58333 C 8.78 g/m*3 9.58 C 0.66667 km/h
607 12-10-2021 06:00:00 9.58333 C 8.78 g/m*3 9.58 C 1.33333 km/h
608 12-10-2021 07:00:00 9.38333 C 8.67 g/m*3 9.38 C 0.26667 km/h
609 12-10-2021 08:00:00 9.39167 C 8.68 g/m*3 9.39 C 3.33333 km/h
610 12-10-2021 09:00:00 9.70833 C 8.87 g/m*3 9.71 C 3.06667 km/h
611 12-10-2021 10:00:00 10.49167 C 9.33 g/m*3 10.49 C 3.86667 km/h
612 12-10-2021 11:00:00 10.825 C 9.48 g/m*3 10.83 C 3.60833 km/h
613 12-10-2021 12:00:00 11.54167 C 9.78 g/m*3 11.54 C 6.85833 km/h
614 12-10-2021 13:00:00 11.70833 C 9.89 g/m*3 11.71 C 3.74167 km/h
615 12-10-2021 14:00:00 11.73333 C 9.96 g/m*3 11.73 C 2.26667 km/h
616 12-10-2021 15:00:00 11.55833 C 9.87 g/m*3 11.56 C 1.6 km/h
617 12-10-2021 16:00:00 11.99167 C 10.23 g/m*3 11.99 C 2 km/h
618 12-10-2021 17:00:00 11.65833 C 10.01 g/m*3 11.66 C 4.53333 km/h
619 12-10-2021 18:00:00 11.21667 C 9.7 g/m*3 11.22 C 2.95 km/h
620 12-10-2021 19:00:00 10.20833 C 9.06 g/m*3 10.21 C 0.8 km/h
621 12-10-2021 20:00:00 9.21667 C 8.53 g/m*3 9.22 C 2.8 km/h
622 12-10-2021 21:00:00 8.05 C 7.92 g/m*3 8.05 C 0.4 km/h
623 12-10-2021 22:00:00 7.86667 C 7.87 g/m*3 7.87 C 0 km/h
624 12-10-2021 23:00:00 7.55 C 7.71 g/m*3 7.55 C 2.13333 km/h
625 13-10-2021 00:00:00 6.93333 C 7.41 g/m*3 6.93 C 0.4 km/h
Sensor: Nr:Datum:Temp:Abs-Feuchte:Windchill:Wind:
Aussen-T/F 626 13-10-2021 01:00:00 6.41667 C 7.16 g/m*3 6.42 C 0.4 km/h
627 13-10-2021 02:00:00 5.81667 C 6.88 g/m*3 5.82 C 0.4 km/h
628 13-10-2021 03:00:00 5.56667 C 6.79 g/m*3 5.57 C 0 km/h
629 13-10-2021 04:00:00 5.66667 C 6.85 g/m*3 5.67 C 0 km/h
630 13-10-2021 05:00:00 6.125 C 7.1 g/m*3 6.13 C 2.675 km/h
631 13-10-2021 06:00:00 6.29167 C 7.18 g/m*3 6.29 C 2.4 km/h
632 13-10-2021 07:00:00 6.36667 C 7.21 g/m*3 6.37 C 1.46667 km/h
633 13-10-2021 08:00:00 6.61667 C 7.33 g/m*3 6.62 C 2 km/h
634 13-10-2021 09:00:00 7.08333 C 7.56 g/m*3 7.08 C 2.13333 km/h
635 13-10-2021 10:00:00 7.79167 C 7.91 g/m*3 7.79 C 3.2 km/h
636 13-10-2021 11:00:00 8.73333 C 8.41 g/m*3 8.73 C 2.4 km/h
637 13-10-2021 12:00:00 9.6 C 8.82 g/m*3 9.6 C 0.8 km/h
638 13-10-2021 13:00:00 10.425 C 9.07 g/m*3 10.43 C 2.4 km/h
639 13-10-2021 14:00:00 11.40833 C 9.17 g/m*3 11.41 C 2.4 km/h
640 13-10-2021 15:00:00 11.98333 C 9.24 g/m*3 11.98 C 1.6 km/h
641 13-10-2021 16:00:00 11.79167 C 9.05 g/m*3 11.79 C 6.70833 km/h
642 13-10-2021 17:00:00 11.00833 C 9.14 g/m*3 11.01 C 2.93333 km/h
643 13-10-2021 18:00:00 10.00833 C 8.65 g/m*3 9.63 C 5.46667 km/h
644 13-10-2021 19:00:00 8.925 C 8.2 g/m*3 8.93 C 3.46667 km/h
645 13-10-2021 20:00:00 8.825 C 8.26 g/m*3 8.82 C 1.06667 km/h
646 13-10-2021 21:00:00 8.9 C 8.33 g/m*3 8.9 C 1.46667 km/h
647 13-10-2021 22:00:00 8.74167 C 8.31 g/m*3 8.74 C 0.66667 km/h
648 13-10-2021 23:00:00 8.79167 C 8.35 g/m*3 8.79 C 3.06667 km/h
649 14-10-2021 00:00:00 8.81667 C 8.36 g/m*3 8.82 C 3.33333 km/h
650 14-10-2021 01:00:00 8.90833 C 8.41 g/m*3 8.91 C 3.21667 km/h
Sensor: Nr:Datum:Temp:Abs-Feuchte:Windchill:Wind:
Aussen-T/F 651 14-10-2021 02:00:00 8.91667 C 8.42 g/m*3 8.92 C 1.6 km/h
652 14-10-2021 03:00:00 8.84167 C 8.38 g/m*3 8.84 C 2.66667 km/h
653 14-10-2021 04:00:00 8.95 C 8.41 g/m*3 8.95 C 4.94167 km/h
654 14-10-2021 05:00:00 9.125 C 8.44 g/m*3 8.74 C 5.08333 km/h
655 14-10-2021 06:00:00 9.26667 C 8.46 g/m*3 8.02 C 8.6 km/h
656 14-10-2021 07:00:00 9.31667 C 8.43 g/m*3 8.57 C 6.44167 km/h
657 14-10-2021 08:00:00 9.4 C 8.5 g/m*3 9.4 C 4.40833 km/h
658 14-10-2021 09:00:00 9.65833 C 8.62 g/m*3 9.66 C 4.13333 km/h
659 14-10-2021 10:00:00 10.625 C 8.8 g/m*3 9.57 C 8.89167 km/h
660 14-10-2021 11:00:00 11.29167 C 9.01 g/m*3 11.29 C 6.83333 km/h
661 14-10-2021 12:00:00 11.875 C 9.24 g/m*3 11.88 C 7.10833 km/h
662 14-10-2021 13:00:00 12.96667 C 9.62 g/m*3 12.97 C 9.825 km/h
663 14-10-2021 14:00:00 14.09167 C 10.08 g/m*3 14.09 C 8.33333 km/h
664 14-10-2021 15:00:00 13.80833 C 10.22 g/m*3 13.81 C 4.69167 km/h
665 14-10-2021 16:00:00 13.55 C 10.33 g/m*3 13.55 C 1.73333 km/h
666 14-10-2021 17:00:00 13.5 C 10.38 g/m*3 13.5 C 1.73333 km/h
667 14-10-2021 18:00:00 12.94167 C 10.17 g/m*3 12.94 C 3.06667 km/h
668 14-10-2021 19:00:00 12.14167 C 9.86 g/m*3 12.14 C 2.8 km/h
669 14-10-2021 20:00:00 11.775 C 9.78 g/m*3 11.78 C 2.53333 km/h
670 14-10-2021 21:00:00 11.34167 C 9.55 g/m*3 11.34 C 1.6 km/h
671 14-10-2021 22:00:00 10.53333 C 9.05 g/m*3 10.53 C 2.66667 km/h
672 14-10-2021 23:00:00 9.525 C 8.53 g/m*3 9.53 C 1.73333 km/h
673 15-10-2021 00:00:00 9.11667 C 8.4 g/m*3 9.12 C 1.86667 km/h
674 15-10-2021 01:00:00 8.89167 C 8.32 g/m*3 8.89 C 2.26667 km/h
675 15-10-2021 02:00:00 8.20833 C 7.93 g/m*3 8.21 C 3.2 km/h
Sensor: Nr:Datum:Temp:Abs-Feuchte:Windchill:Wind:
Aussen-T/F 676 15-10-2021 03:00:00 7.65 C 7.66 g/m*3 7.65 C 2 km/h
677 15-10-2021 04:00:00 7.43333 C 7.57 g/m*3 6.43 C 6.30833 km/h
678 15-10-2021 05:00:00 7.05833 C 7.39 g/m*3 7.06 C 2.80833 km/h
679 15-10-2021 06:00:00 6.375 C 7.07 g/m*3 6.38 C 0.93333 km/h
680 15-10-2021 07:00:00 6.01667 C 6.95 g/m*3 6.02 C 2.28333 km/h
681 15-10-2021 08:00:00 7.45 C 7.67 g/m*3 5.3 C 11.56667 km/h
682 15-10-2021 09:00:00 8.30833 C 7.95 g/m*3 6.13 C 12.9 km/h
683 15-10-2021 10:00:00 9.25 C 8.22 g/m*3 7.16 C 13.7 km/h
684 15-10-2021 11:00:00 10.79167 C 8.64 g/m*3 9.28 C 11.95 km/h
685 15-10-2021 12:00:00 11.775 C 9.03 g/m*3 11.78 C 9.69167 km/h
686 15-10-2021 13:00:00 12.54167 C 9.32 g/m*3 12.54 C 8.19167 km/h
687 15-10-2021 14:00:00 12.68333 C 9.68 g/m*3 12.68 C 5.64167 km/h
688 15-10-2021 15:00:00 12.40833 C 10.15 g/m*3 12.41 C 1.06667 km/h
689 15-10-2021 16:00:00 12.23333 C 10.17 g/m*3 12.23 C 0.53333 km/h
690 15-10-2021 17:00:00 12.14167 C 10.21 g/m*3 12.14 C 0.26667 km/h
691 15-10-2021 18:00:00 11.525 C 9.76 g/m*3 11.53 C 3.73333 km/h
692 15-10-2021 19:00:00 10.175 C 8.95 g/m*3 9.67 C 6.00833 km/h
693 15-10-2021 20:00:00 8.96667 C 8.34 g/m*3 8.97 C 2.53333 km/h
694 15-10-2021 21:00:00 7.65 C 7.64 g/m*3 7.65 C 0 km/h
695 15-10-2021 22:00:00 6.875 C 7.31 g/m*3 6.88 C 0 km/h
696 15-10-2021 23:00:00 7.125 C 7.5 g/m*3 7.13 C 0.13333 km/h
697 16-10-2021 00:00:00 7.25 C 7.56 g/m*3 7.25 C 0.13333 km/h
698 16-10-2021 01:00:00 7.05 C 7.46 g/m*3 7.05 C 0.4 km/h
699 16-10-2021 02:00:00 6.83333 C 7.39 g/m*3 6.83 C 1.33333 km/h
700 16-10-2021 03:00:00 6.76667 C 7.4 g/m*3 6.77 C 3.74167 km/h
Sensor: Nr:Datum:Temp:Abs-Feuchte:Windchill:Wind:
Aussen-T/F 701 16-10-2021 04:00:00 6.63333 C 7.34 g/m*3 6.63 C 2.8 km/h
702 16-10-2021 05:00:00 6.44167 C 7.25 g/m*3 6.44 C 0.53333 km/h
703 16-10-2021 06:00:00 6.34167 C 7.2 g/m*3 6.34 C 1.33333 km/h
704 16-10-2021 07:00:00 6.21667 C 7.14 g/m*3 6.22 C 0.53333 km/h
705 16-10-2021 08:00:00 6.35833 C 7.21 g/m*3 6.36 C 1.46667 km/h
706 16-10-2021 09:00:00 6.35833 C 7.21 g/m*3 6.36 C 0.13333 km/h
707 16-10-2021 10:00:00 6.7 C 7.38 g/m*3 6.7 C 0.8 km/h
708 16-10-2021 11:00:00 7.00833 C 7.56 g/m*3 7.01 C 1.2 km/h
709 16-10-2021 12:00:00 7.30833 C 7.72 g/m*3 7.31 C 3.2 km/h
710 16-10-2021 13:00:00 7.78333 C 7.96 g/m*3 7.78 C 3.06667 km/h
711 16-10-2021 14:00:00 8.48333 C 8.34 g/m*3 8.48 C 2.93333 km/h
712 16-10-2021 15:00:00 8.94167 C 8.52 g/m*3 8.94 C 0 km/h
713 16-10-2021 16:00:00 9.45833 C 8.81 g/m*3 9.46 C 0.66667 km/h
714 16-10-2021 17:00:00 10.48333 C 9.4 g/m*3 10.48 C 0 km/h
715 16-10-2021 18:00:00 9.9 C 8.96 g/m*3 9.9 C 0.53333 km/h
716 16-10-2021 19:00:00 9.35833 C 8.66 g/m*3 9.36 C 2 km/h
717 16-10-2021 20:00:00 8.725 C 8.32 g/m*3 8.73 C 2.93333 km/h
718 16-10-2021 21:00:00 8.26667 C 8.07 g/m*3 8.27 C 1.06667 km/h
719 16-10-2021 22:00:00 8.25 C 8.07 g/m*3 8.25 C 0 km/h
720 16-10-2021 23:00:00 8.39167 C 8.22 g/m*3 8.39 C 0 km/h

Maximal/Minimal-Werte vom 17.09.2021 - 16.10.2021

Sensor Min Max Avg
Temp
(Aussen-T/F)
4 °C
11-10-2021  03:35:00
23.2 °C
03-10-2021  14:40:00
12.26 °C
Abs-Feuchte
(Aussen-T/F)
6.14 g/m*3
11-10-2021  03:00:00
15.03 g/m*3
26-09-2021  16:00:00
9.69 g/m*3
Windchill
(Aussen-T/F)
4.2 C
11-10-2021  03:00:00
22.87 C
03-10-2021  14:00:00
12.2 C

Die Daten stammen von einer Davis Vantage Pro 2 Wetter-Station und werden unter Linux mit der Software wview2wettercgi und aufbereitet. Alle Angaben erfolgen ohne Gewähr für ihre Vollständigkeit oder Richtigkeit.
Kontakt: Rainer Krienke krienke@uni-koblenz.de . Meine Webseiten an der Uni Koblenz oder privat.
Version: $Revision: 0.78 $